createdAt,value
2018-03-18T00:01:24.637Z,4.43
2018-03-18T00:03:53.681Z,4.07
2018-03-18T00:06:21.992Z,3.50
2018-03-18T00:08:50.363Z,4.62
2018-03-18T00:11:18.640Z,3.70
2018-03-18T00:13:46.917Z,4.40
2018-03-18T00:16:15.288Z,4.68
2018-03-18T00:18:43.570Z,4.18
2018-03-18T00:21:11.832Z,4.00
2018-03-18T00:23:40.140Z,4.30
2018-03-18T00:26:08.504Z,4.70
2018-03-18T00:28:36.792Z,5.45
2018-03-18T00:31:05.159Z,4.65
2018-03-18T00:33:33.437Z,5.87
2018-03-18T00:36:01.716Z,5.03
2018-03-18T00:38:30.006Z,4.00
2018-03-18T00:40:59.781Z,4.00
2018-03-18T00:43:28.095Z,4.50
2018-03-18T00:45:56.361Z,3.87
2018-03-18T00:48:24.647Z,3.92
2018-03-18T00:50:54.447Z,4.47
2018-03-18T00:53:22.723Z,3.90
2018-03-18T00:55:51.020Z,4.47
2018-03-18T00:58:19.294Z,5.23
2018-03-18T01:00:47.580Z,4.68
2018-03-18T01:03:16.616Z,4.57
2018-03-18T01:05:44.915Z,4.72
2018-03-18T01:08:13.184Z,4.72
2018-03-18T01:10:41.472Z,4.97
2018-03-18T01:13:09.759Z,3.90
2018-03-18T01:15:38.064Z,3.80
2018-03-18T01:18:06.328Z,4.60
2018-03-18T01:20:35.387Z,5.12
2018-03-18T01:23:03.673Z,4.62
2018-03-18T01:25:31.967Z,4.20
2018-03-18T01:28:00.231Z,4.10
2018-03-18T01:30:28.507Z,4.05
2018-03-18T01:32:56.790Z,4.03
2018-03-18T01:35:25.075Z,4.57
2018-03-18T01:37:53.356Z,3.78
2018-03-18T01:40:21.625Z,4.20
2018-03-18T01:42:49.905Z,3.45
2018-03-18T01:45:18.183Z,5.15
2018-03-18T01:47:46.478Z,4.00
2018-03-18T01:50:14.761Z,3.80
2018-03-18T01:55:39.522Z,4.03
2018-03-18T01:58:07.816Z,4.80
2018-03-18T02:00:36.092Z,3.62
2018-03-18T02:03:04.344Z,5.00
2018-03-18T02:05:32.632Z,4.70
2018-03-18T02:08:00.905Z,3.72
2018-03-18T02:10:29.194Z,3.35
2018-03-18T02:12:57.460Z,2.28
2018-03-18T02:15:25.773Z,3.42
2018-03-18T02:17:54.024Z,3.70
2018-03-18T02:20:22.310Z,3.40
2018-03-18T02:22:50.587Z,4.12
2018-03-18T02:25:18.884Z,4.40
2018-03-18T02:27:47.148Z,3.95
2018-03-18T02:30:15.429Z,3.85
2018-03-18T02:32:43.726Z,3.47
2018-03-18T02:35:12.319Z,4.25
2018-03-18T02:37:40.607Z,3.25
2018-03-18T02:40:09.644Z,3.30
2018-03-18T02:42:37.932Z,3.08
2018-03-18T02:45:06.211Z,3.45
2018-03-18T02:47:34.505Z,3.17
2018-03-18T02:50:02.871Z,4.75
2018-03-18T02:52:31.146Z,4.10
2018-03-18T02:54:59.435Z,3.15
2018-03-18T02:57:27.704Z,3.47
2018-03-18T02:59:56.092Z,2.72
2018-03-18T03:02:24.359Z,2.92
2018-03-18T03:04:52.648Z,3.90
2018-03-18T03:07:20.935Z,3.67
2018-03-18T03:09:50.031Z,4.43
2018-03-18T03:12:18.298Z,3.50
2018-03-18T03:14:46.585Z,2.97
2018-03-18T03:17:14.895Z,3.12
2018-03-18T03:19:43.180Z,2.92
2018-03-18T03:22:11.455Z,3.03
2018-03-18T03:24:39.726Z,2.70
2018-03-18T03:27:08.010Z,2.92
2018-03-18T03:29:36.341Z,2.67
2018-03-18T03:32:04.646Z,3.60
2018-03-18T03:34:33.687Z,3.42
2018-03-18T03:37:01.980Z,4.07
2018-03-18T03:39:30.248Z,4.00
2018-03-18T03:41:58.549Z,3.65
2018-03-18T03:44:26.826Z,3.37
2018-03-18T03:46:55.076Z,3.42
2018-03-18T03:49:23.369Z,2.90
2018-03-18T03:51:51.632Z,3.05
2018-03-18T03:54:19.928Z,3.35
2018-03-18T03:56:48.206Z,3.72
2018-03-18T03:59:16.484Z,3.08
2018-03-18T04:01:44.758Z,3.90
2018-03-18T04:04:13.085Z,3.10
2018-03-18T04:06:41.363Z,3.33
2018-03-18T04:09:09.684Z,3.12
2018-03-18T04:11:37.984Z,3.62
2018-03-18T04:14:06.242Z,4.50
2018-03-18T04:16:34.544Z,3.35
2018-03-18T04:19:02.835Z,3.42
2018-03-18T04:21:31.927Z,4.00
2018-03-18T04:24:00.264Z,2.72
2018-03-18T04:26:28.539Z,2.85
2018-03-18T04:28:56.815Z,3.17
2018-03-18T04:31:25.215Z,2.97
2018-03-18T04:33:53.496Z,3.90
2018-03-18T04:36:21.786Z,3.33
2018-03-18T04:38:50.061Z,3.40
2018-03-18T04:41:18.423Z,3.22
2018-03-18T04:43:46.696Z,2.87
2018-03-18T04:46:14.987Z,3.25
2018-03-18T04:48:43.254Z,2.70
2018-03-18T04:51:11.561Z,3.20
2018-03-18T04:53:40.590Z,2.65
2018-03-18T04:56:08.876Z,3.60
2018-03-18T04:58:37.157Z,2.42
2018-03-18T05:01:05.469Z,4.10
2018-03-18T05:03:33.749Z,2.20
2018-03-18T05:06:02.048Z,3.72
2018-03-18T05:08:31.084Z,2.33
2018-03-18T05:10:59.371Z,2.97
2018-03-18T05:13:27.661Z,4.10
2018-03-18T05:15:55.923Z,3.72
2018-03-18T05:18:24.222Z,2.85
2018-03-18T05:20:52.508Z,3.62
2018-03-18T05:23:20.872Z,2.70
2018-03-18T05:25:49.148Z,2.85
2018-03-18T05:28:17.441Z,3.37
2018-03-18T05:30:45.813Z,3.35
2018-03-18T05:33:14.076Z,2.35
2018-03-18T05:35:42.365Z,2.65
2018-03-18T05:38:11.409Z,3.05
2018-03-18T05:40:39.699Z,2.53
2018-03-18T05:43:07.981Z,3.22
2018-03-18T05:45:36.264Z,3.08
2018-03-18T05:48:04.540Z,3.60
2018-03-18T05:50:32.839Z,2.42
2018-03-18T05:53:01.106Z,3.10
2018-03-18T05:55:29.411Z,3.50
2018-03-18T05:57:57.670Z,3.33
2018-03-18T06:00:26.032Z,3.87
2018-03-18T06:02:54.307Z,3.35
2018-03-18T06:05:22.711Z,3.08
2018-03-18T06:07:50.986Z,2.80
2018-03-18T06:10:19.282Z,3.50
2018-03-18T06:12:47.557Z,2.78
2018-03-18T06:15:15.841Z,3.85
2018-03-18T06:17:44.888Z,3.60
2018-03-18T06:20:13.179Z,2.90
2018-03-18T06:22:41.494Z,2.70
2018-03-18T06:25:10.536Z,3.42
2018-03-18T06:27:38.826Z,2.35
2018-03-18T06:30:07.102Z,2.78
2018-03-18T06:32:35.472Z,2.28
2018-03-18T06:35:03.751Z,3.50
2018-03-18T06:37:32.026Z,2.67
2018-03-18T06:40:00.354Z,2.80
2018-03-18T06:42:29.386Z,2.60
2018-03-18T06:44:57.673Z,3.00
2018-03-18T06:47:25.948Z,2.95
2018-03-18T06:49:54.231Z,3.17
2018-03-18T06:52:22.505Z,3.12
2018-03-18T06:54:50.838Z,3.12
2018-03-18T06:57:19.064Z,3.22
2018-03-18T06:59:47.992Z,3.03
2018-03-18T07:02:16.353Z,3.05
2018-03-18T07:04:44.635Z,2.40
2018-03-18T07:07:13.696Z,2.78
2018-03-18T07:09:41.961Z,3.35
2018-03-18T07:12:11.264Z,2.85
2018-03-18T07:14:39.642Z,2.50
2018-03-18T07:17:07.957Z,2.53
2018-03-18T07:19:36.219Z,2.12
2018-03-18T07:22:04.508Z,2.50
2018-03-18T07:24:32.772Z,3.00
2018-03-18T07:27:01.086Z,3.03
2018-03-18T07:29:29.351Z,3.08
2018-03-18T07:31:57.633Z,3.05
2018-03-18T07:34:25.935Z,2.78
2018-03-18T07:36:54.204Z,2.83
2018-03-18T07:39:23.290Z,2.97
2018-03-18T07:41:52.325Z,3.15
2018-03-18T07:44:21.434Z,2.62
2018-03-18T07:46:49.715Z,2.55
2018-03-18T07:49:18.004Z,2.80
2018-03-18T07:51:46.285Z,2.22
2018-03-18T07:54:14.599Z,2.30
2018-03-18T07:56:42.868Z,2.60
2018-03-18T07:59:11.160Z,3.58
2018-03-18T08:01:39.514Z,2.90
2018-03-18T08:04:07.803Z,2.55
2018-03-18T08:06:36.865Z,2.20
2018-03-18T08:09:05.136Z,2.80
2018-03-18T08:11:33.433Z,2.75
2018-03-18T08:14:01.723Z,2.47
2018-03-18T08:16:30.011Z,3.40
2018-03-18T08:18:59.056Z,2.92
2018-03-18T08:21:27.380Z,2.87
2018-03-18T08:23:55.661Z,2.47
2018-03-18T08:26:24.019Z,2.60
2018-03-18T08:28:53.066Z,3.00
2018-03-18T08:31:21.361Z,3.60
2018-03-18T08:33:49.619Z,3.33
2018-03-18T08:36:17.906Z,2.87
2018-03-18T08:38:46.198Z,2.63
2018-03-18T08:41:14.486Z,2.83
2018-03-18T08:43:42.783Z,3.40
2018-03-18T08:46:11.165Z,2.30
2018-03-18T08:48:39.548Z,2.87
2018-03-18T08:51:07.810Z,3.27
2018-03-18T08:53:36.101Z,3.40
2018-03-18T08:56:04.358Z,3.20
2018-03-18T08:58:32.836Z,2.67
2018-03-18T09:01:01.112Z,2.83
2018-03-18T09:03:29.388Z,2.57
2018-03-18T09:05:57.653Z,3.17
2018-03-18T09:08:25.936Z,2.70
2018-03-18T09:10:54.204Z,3.27
2018-03-18T09:13:22.504Z,3.23
2018-03-18T09:15:50.770Z,3.07
2018-03-18T09:18:19.136Z,2.70
2018-03-18T09:20:47.403Z,2.50
2018-03-18T09:23:15.684Z,3.70
2018-03-18T09:25:43.963Z,2.73
2018-03-18T09:28:12.281Z,2.97
2018-03-18T09:30:40.571Z,2.10
2018-03-18T09:33:08.829Z,2.80
2018-03-18T09:35:37.225Z,2.57
2018-03-18T09:38:05.598Z,2.97
2018-03-18T09:40:33.876Z,2.40
2018-03-18T09:43:02.148Z,2.77
2018-03-18T09:45:30.435Z,3.60
2018-03-18T09:47:58.724Z,2.73
2018-03-18T09:50:26.982Z,2.37
2018-03-18T09:52:55.252Z,2.20
2018-03-18T09:55:23.514Z,2.97
2018-03-18T09:57:51.814Z,3.10
2018-03-18T10:00:20.092Z,3.13
2018-03-18T10:02:48.384Z,2.60
2018-03-18T10:05:16.652Z,2.63
2018-03-18T10:07:44.928Z,2.93
2018-03-18T10:10:13.264Z,2.70
2018-03-18T10:12:41.520Z,2.23
2018-03-18T10:15:10.672Z,2.07
2018-03-18T10:17:38.925Z,2.83
2018-03-18T10:20:07.537Z,3.03
2018-03-18T10:22:35.785Z,2.60
2018-03-18T10:25:04.060Z,2.77
2018-03-18T10:27:32.308Z,2.20
2018-03-18T10:30:01.353Z,2.37
2018-03-18T10:32:29.623Z,3.13
2018-03-18T10:34:57.919Z,3.00
2018-03-18T10:37:26.184Z,2.80
2018-03-18T10:39:54.485Z,2.83
2018-03-18T10:42:22.849Z,2.43
2018-03-18T10:44:51.105Z,2.80
2018-03-18T10:47:19.411Z,3.07
2018-03-18T10:49:47.677Z,2.43
2018-03-18T10:52:15.957Z,2.90
2018-03-18T10:54:44.236Z,2.77
2018-03-18T10:57:12.501Z,2.60
2018-03-18T10:59:40.776Z,2.50
2018-03-18T11:02:14.852Z,2.50
2018-03-18T11:04:43.910Z,2.60
2018-03-18T11:07:12.174Z,2.67
2018-03-18T11:09:40.423Z,2.27
2018-03-18T11:12:08.697Z,2.40
2018-03-18T11:14:36.958Z,3.17
2018-03-18T11:17:05.999Z,3.40
2018-03-18T11:19:34.265Z,2.87
2018-03-18T11:22:02.549Z,3.20
2018-03-18T11:24:30.831Z,2.53
2018-03-18T11:26:59.088Z,2.53
2018-03-18T11:29:27.380Z,2.17
2018-03-18T11:31:55.652Z,2.10
2018-03-18T11:34:23.917Z,2.27
2018-03-18T11:36:52.217Z,2.63
2018-03-18T11:39:20.455Z,2.60
2018-03-18T11:41:48.771Z,3.00
2018-03-18T11:44:17.028Z,3.30
2018-03-18T11:46:45.302Z,2.50
2018-03-18T11:49:13.561Z,2.70
2018-03-18T11:51:41.829Z,3.10
2018-03-18T11:54:10.080Z,2.40
2018-03-18T11:56:39.149Z,2.60
2018-03-18T11:59:07.405Z,2.93
2018-03-18T12:01:35.677Z,2.67
2018-03-18T12:04:03.950Z,2.83
2018-03-18T12:06:32.279Z,2.90
2018-03-18T12:09:00.495Z,2.50
2018-03-18T12:11:28.767Z,2.90
2018-03-18T12:13:57.707Z,2.67
2018-03-18T12:16:25.982Z,2.30
2018-03-18T12:18:54.258Z,2.37
2018-03-18T12:21:22.508Z,3.23
2018-03-18T12:23:50.785Z,2.10
2018-03-18T12:26:19.470Z,2.20
2018-03-18T12:28:47.761Z,2.87
2018-03-18T12:31:16.018Z,2.53
2018-03-18T12:33:44.275Z,2.70
2018-03-18T12:36:12.545Z,3.00
2018-03-18T12:38:41.581Z,2.63
2018-03-18T12:41:09.837Z,3.10
2018-03-18T12:43:38.109Z,2.40
2018-03-18T12:46:06.368Z,2.57
2018-03-18T12:48:35.530Z,3.83
2018-03-18T12:51:03.776Z,3.10
2018-03-18T12:53:32.097Z,2.90
2018-03-18T12:56:00.360Z,2.20
2018-03-18T12:58:28.740Z,3.07
2018-03-18T13:00:56.999Z,3.07
2018-03-18T13:03:25.280Z,2.47
2018-03-18T13:05:54.357Z,2.97
2018-03-18T13:08:22.669Z,2.73
2018-03-18T13:10:50.922Z,2.50
2018-03-18T13:13:19.203Z,2.43
2018-03-18T13:15:47.485Z,2.60
2018-03-18T13:18:15.775Z,2.47
2018-03-18T13:20:44.043Z,2.43
2018-03-18T13:23:12.315Z,2.90
2018-03-18T13:25:40.583Z,2.23
2018-03-18T13:28:08.864Z,2.90
2018-03-18T13:30:37.115Z,2.20
2018-03-18T13:33:05.389Z,2.10
2018-03-18T13:35:33.666Z,2.60
2018-03-18T13:38:02.722Z,2.40
2018-03-18T13:40:31.000Z,2.77
2018-03-18T13:42:59.313Z,2.20
2018-03-18T13:45:27.586Z,2.70
2018-03-18T13:47:57.263Z,2.90
2018-03-18T13:50:25.529Z,2.70
2018-03-18T13:52:53.806Z,2.90
2018-03-18T13:55:22.187Z,2.77
2018-03-18T13:57:50.441Z,2.40
2018-03-18T14:00:18.716Z,2.43
2018-03-18T14:02:46.976Z,2.60
2018-03-18T14:05:15.254Z,2.83
2018-03-18T14:07:43.512Z,2.70
2018-03-18T14:10:12.565Z,2.97
2018-03-18T14:12:40.830Z,3.07
2018-03-18T14:15:09.225Z,3.00
2018-03-18T14:17:37.495Z,3.37
2018-03-18T14:20:05.815Z,3.67
2018-03-18T14:22:34.095Z,2.90
2018-03-18T14:25:03.124Z,3.17
2018-03-18T14:27:31.449Z,3.10
2018-03-18T14:29:59.803Z,2.50
2018-03-18T14:32:28.084Z,3.13
2018-03-18T14:34:56.469Z,3.67
2018-03-18T14:37:24.761Z,2.93
2018-03-18T14:39:53.024Z,2.90
2018-03-18T14:42:21.304Z,2.73
2018-03-18T14:44:49.584Z,3.83
2018-03-18T14:47:17.865Z,3.43
2018-03-18T14:49:46.130Z,3.37
2018-03-18T14:52:14.409Z,3.50
2018-03-18T14:54:42.888Z,3.93
2018-03-18T14:57:11.136Z,3.60
2018-03-18T14:59:39.544Z,3.80
2018-03-18T15:02:07.814Z,3.27
2018-03-18T15:04:36.107Z,3.03
2018-03-18T15:07:04.357Z,3.10
2018-03-18T15:09:32.648Z,2.97
2018-03-18T15:12:00.904Z,2.83
2018-03-18T15:14:29.296Z,3.50
2018-03-18T15:16:57.565Z,3.10
2018-03-18T15:19:25.848Z,2.80
2018-03-18T15:21:54.812Z,3.47
2018-03-18T15:24:23.077Z,3.50
2018-03-18T15:26:51.512Z,3.87
2018-03-18T15:29:19.816Z,3.80
2018-03-18T15:31:48.860Z,4.13
2018-03-18T15:34:17.118Z,3.23
2018-03-18T15:36:45.417Z,3.63
2018-03-18T15:39:13.715Z,3.83
2018-03-18T15:41:42.004Z,3.33
2018-03-18T15:44:10.264Z,3.27
2018-03-18T15:46:38.552Z,2.90
2018-03-18T15:49:07.036Z,3.37
2018-03-18T15:51:35.288Z,3.27
2018-03-18T15:54:03.621Z,3.47
2018-03-18T15:56:32.854Z,3.17
2018-03-18T15:59:01.151Z,3.20
2018-03-18T16:01:29.416Z,3.30
2018-03-18T16:03:57.692Z,2.90
2018-03-18T16:06:25.966Z,3.50
2018-03-18T16:08:54.241Z,3.30
2018-03-18T16:11:22.515Z,4.17
2018-03-18T16:13:50.812Z,2.80
2018-03-18T16:16:19.490Z,4.10
2018-03-18T16:18:47.782Z,3.23
2018-03-18T16:21:16.105Z,3.30
2018-03-18T16:23:44.302Z,3.53
2018-03-18T16:26:12.576Z,3.47
2018-03-18T16:28:40.895Z,2.77
2018-03-18T16:31:15.701Z,3.77
2018-03-18T16:33:43.947Z,3.40
2018-03-18T16:36:13.129Z,3.73
2018-03-18T16:38:41.479Z,3.77
2018-03-18T16:41:09.743Z,4.03
2018-03-18T16:43:38.014Z,3.07
2018-03-18T16:46:06.275Z,2.80
2018-03-18T16:48:34.590Z,2.97
2018-03-18T16:51:02.866Z,3.60
2018-03-18T16:53:31.137Z,3.60
2018-03-18T16:55:59.813Z,3.17
2018-03-18T16:58:28.089Z,3.83
2018-03-18T17:00:56.378Z,3.00
2018-03-18T17:03:24.628Z,3.20
2018-03-18T17:05:52.903Z,3.40
2018-03-18T17:08:21.177Z,3.23
2018-03-18T17:10:49.595Z,3.40
2018-03-18T17:13:17.857Z,3.10
2018-03-18T17:15:46.103Z,2.93
2018-03-18T17:18:14.380Z,3.20
2018-03-18T17:20:42.719Z,3.20
2018-03-18T17:23:11.108Z,3.40
2018-03-18T17:25:39.804Z,3.10
2018-03-18T17:28:08.077Z,3.13
2018-03-18T17:30:36.432Z,3.07
2018-03-18T17:33:04.744Z,3.33
2018-03-18T17:35:33.780Z,2.93
2018-03-18T17:38:02.053Z,3.37
2018-03-18T17:40:30.317Z,2.67
2018-03-18T17:42:58.583Z,3.07
2018-03-18T17:45:38.753Z,3.97
2018-03-18T17:48:19.010Z,2.53
2018-03-18T17:50:59.089Z,3.20
2018-03-18T17:53:39.269Z,3.23
2018-03-18T17:56:19.374Z,3.10
2018-03-18T17:58:48.399Z,2.90
2018-03-18T18:01:16.677Z,3.13
2018-03-18T18:03:44.934Z,3.20
2018-03-18T18:06:13.236Z,2.60
2018-03-18T18:08:41.499Z,3.87
2018-03-18T18:11:09.893Z,3.67
2018-03-18T18:13:38.278Z,2.40
2018-03-18T18:16:06.652Z,2.60
2018-03-18T18:18:34.948Z,3.23
2018-03-18T18:21:03.215Z,3.50
2018-03-18T18:23:31.478Z,3.27
2018-03-18T18:25:59.740Z,3.00
2018-03-18T18:28:28.091Z,3.20
2018-03-18T18:30:56.315Z,3.00
2018-03-18T18:33:24.585Z,3.43
2018-03-18T18:35:52.872Z,3.30
2018-03-18T18:38:21.152Z,3.57
2018-03-18T18:40:49.529Z,3.00
2018-03-18T18:43:17.817Z,3.20
2018-03-18T18:45:46.082Z,3.63
2018-03-18T18:48:14.333Z,2.97
2018-03-18T18:50:42.738Z,4.37
2018-03-18T18:53:10.999Z,3.50
2018-03-18T18:55:39.595Z,3.30
2018-03-18T18:58:07.855Z,3.77
2018-03-18T19:00:36.133Z,3.13
2018-03-18T19:03:04.437Z,3.27
2018-03-18T19:05:32.731Z,3.40
2018-03-18T19:08:01.083Z,4.30
2018-03-18T19:10:29.368Z,3.10
2018-03-18T19:12:57.644Z,3.70
2018-03-18T19:15:25.918Z,3.83
2018-03-18T19:17:54.202Z,3.20
2018-03-18T19:20:22.468Z,2.80
2018-03-18T19:22:50.746Z,3.77
2018-03-18T19:25:19.024Z,2.97
2018-03-18T19:27:47.398Z,3.70
2018-03-18T19:30:15.674Z,2.03
2018-03-18T19:32:43.952Z,3.37
2018-03-18T19:35:12.340Z,4.10
2018-03-18T19:37:40.625Z,4.17
2018-03-18T19:40:08.892Z,3.20
2018-03-18T19:42:37.157Z,3.33
2018-03-18T19:45:05.469Z,4.63
2018-03-18T19:47:33.737Z,3.07
2018-03-18T19:50:02.104Z,3.73
2018-03-18T19:52:30.381Z,3.40
2018-03-18T19:54:58.645Z,3.70
2018-03-18T19:57:26.933Z,4.00
2018-03-18T19:59:55.201Z,3.60
2018-03-18T20:02:23.488Z,3.33
2018-03-18T20:04:51.873Z,3.77
2018-03-18T20:07:20.132Z,3.10
2018-03-18T20:09:48.410Z,2.90
2018-03-18T20:12:16.683Z,3.33
2018-03-18T20:14:44.950Z,3.73
2018-03-18T20:17:13.223Z,4.13
2018-03-18T20:19:41.479Z,2.97
2018-03-18T20:22:09.771Z,4.20
2018-03-18T20:24:38.039Z,4.23
2018-03-18T20:27:06.312Z,4.43
2018-03-18T20:29:35.356Z,4.53
2018-03-18T20:32:03.633Z,3.07
2018-03-18T20:34:31.906Z,4.33
2018-03-18T20:37:00.176Z,3.87
2018-03-18T20:39:28.568Z,3.37
2018-03-18T20:41:56.832Z,3.73
2018-03-18T20:44:25.128Z,2.97
2018-03-18T20:46:53.386Z,3.50
2018-03-18T20:49:21.773Z,3.80
2018-03-18T20:51:50.037Z,3.83
2018-03-18T20:54:18.366Z,3.97
2018-03-18T20:56:46.712Z,3.87
2018-03-18T20:59:14.975Z,4.57
2018-03-18T21:01:43.248Z,3.97
2018-03-18T21:04:11.516Z,3.97
2018-03-18T21:06:39.803Z,3.50
2018-03-18T21:09:08.068Z,4.63
2018-03-18T21:11:36.353Z,4.00
2018-03-18T21:14:04.625Z,4.57
2018-03-18T21:16:32.932Z,4.90
2018-03-18T21:19:01.210Z,3.97
2018-03-18T21:21:30.376Z,4.00
2018-03-18T21:23:58.649Z,5.10
2018-03-18T21:26:26.908Z,3.70
2018-03-18T21:28:55.205Z,3.67
2018-03-18T21:31:23.474Z,3.63
2018-03-18T21:33:51.747Z,3.90
2018-03-18T21:36:20.009Z,4.53
2018-03-18T21:38:48.292Z,3.57
2018-03-18T21:41:16.638Z,4.13
2018-03-18T21:43:44.921Z,3.63
2018-03-18T21:46:13.282Z,3.77
2018-03-18T21:48:41.575Z,4.77
2018-03-18T21:51:09.854Z,4.07
2018-03-18T21:53:38.130Z,5.20
2018-03-18T21:56:06.409Z,4.20
2018-03-18T21:58:34.769Z,3.50
2018-03-18T22:01:03.068Z,4.10
2018-03-18T22:03:31.327Z,3.13
2018-03-18T22:06:00.899Z,3.70
2018-03-18T22:08:29.175Z,4.23
2018-03-18T22:10:57.464Z,3.27
2018-03-18T22:13:25.720Z,4.77
2018-03-18T22:15:54.007Z,3.57
2018-03-18T22:18:22.272Z,3.77
2018-03-18T22:20:50.573Z,4.10
2018-03-18T22:23:18.852Z,3.73
2018-03-18T22:25:47.128Z,4.03
2018-03-18T22:28:15.439Z,3.43
2018-03-18T22:30:43.700Z,3.77
2018-03-18T22:33:11.989Z,4.67
2018-03-18T22:35:40.253Z,3.80
2018-03-18T22:38:08.532Z,3.27
2018-03-18T22:40:36.808Z,3.70
2018-03-18T22:43:05.201Z,3.57
2018-03-18T22:45:33.465Z,3.83
2018-03-18T22:48:01.747Z,4.93
2018-03-18T22:50:30.031Z,4.23
2018-03-18T22:52:58.332Z,4.57
2018-03-18T22:55:27.375Z,4.40
2018-03-18T22:57:55.636Z,3.90
2018-03-18T23:00:23.916Z,5.10
2018-03-18T23:02:52.182Z,4.20
2018-03-18T23:05:20.476Z,4.23
2018-03-18T23:07:48.743Z,4.47
2018-03-18T23:10:17.025Z,4.30
2018-03-18T23:12:45.288Z,3.00
2018-03-18T23:15:13.573Z,5.63
2018-03-18T23:17:41.843Z,4.37
2018-03-18T23:20:10.687Z,3.90
2018-03-18T23:22:38.949Z,4.63
2018-03-18T23:25:07.233Z,4.00
2018-03-18T23:27:35.487Z,4.37
2018-03-18T23:30:03.781Z,4.10
2018-03-18T23:32:32.041Z,3.90
2018-03-18T23:35:00.324Z,3.80
2018-03-18T23:37:28.595Z,3.40
2018-03-18T23:39:56.885Z,4.13
2018-03-18T23:42:25.132Z,4.10
2018-03-18T23:44:53.427Z,5.30
2018-03-18T23:47:21.684Z,4.30
2018-03-18T23:49:49.962Z,4.13
2018-03-18T23:52:18.274Z,4.10
2018-03-18T23:54:46.528Z,3.63
2018-03-18T23:57:14.813Z,4.47
2018-03-18T23:59:43.070Z,3.70
